sensor_id;sensor_type;location;lat;lon;timestamp;pressure;altitude;pressure_sealevel;temperature;humidity
49949;BME280;35840;45.982;8.890;2024-03-22T00:01:13;98752.03;;;12.15;54.29
49949;BME280;35840;45.982;8.890;2024-03-22T00:03:39;98743.75;;;12.10;54.17
49949;BME280;35840;45.982;8.890;2024-03-22T00:06:04;98752.66;;;12.19;54.42
49949;BME280;35840;45.982;8.890;2024-03-22T00:08:30;98748.06;;;12.24;55.22
49949;BME280;35840;45.982;8.890;2024-03-22T00:10:56;98749.81;;;12.09;55.74
49949;BME280;35840;45.982;8.890;2024-03-22T00:13:22;98755.53;;;12.00;56.18
49949;BME280;35840;45.982;8.890;2024-03-22T00:15:48;98747.78;;;12.14;55.48
49949;BME280;35840;45.982;8.890;2024-03-22T00:18:13;98759.31;;;12.09;56.01
49949;BME280;35840;45.982;8.890;2024-03-22T00:20:39;98757.53;;;12.09;55.33
49949;BME280;35840;45.982;8.890;2024-03-22T00:23:05;98763.22;;;11.85;56.14
49949;BME280;35840;45.982;8.890;2024-03-22T00:25:31;98766.34;;;11.76;56.22
49949;BME280;35840;45.982;8.890;2024-03-22T00:27:57;98769.88;;;11.89;56.62
49949;BME280;35840;45.982;8.890;2024-03-22T00:30:23;98779.97;;;11.93;56.33
49949;BME280;35840;45.982;8.890;2024-03-22T00:32:49;98766.94;;;11.96;56.49
49949;BME280;35840;45.982;8.890;2024-03-22T00:35:15;98775.34;;;11.99;56.19
49949;BME280;35840;45.982;8.890;2024-03-22T00:37:40;98771.38;;;11.63;57.17
49949;BME280;35840;45.982;8.890;2024-03-22T00:40:06;98785.22;;;11.77;57.62
49949;BME280;35840;45.982;8.890;2024-03-22T00:42:32;98781.06;;;11.88;57.07
49949;BME280;35840;45.982;8.890;2024-03-22T00:44:58;98775.75;;;11.92;57.50
49949;BME280;35840;45.982;8.890;2024-03-22T00:47:24;98792.72;;;11.96;56.65
49949;BME280;35840;45.982;8.890;2024-03-22T00:49:50;98786.06;;;11.47;57.58
49949;BME280;35840;45.982;8.890;2024-03-22T00:52:15;98784.34;;;11.62;57.61
49949;BME280;35840;45.982;8.890;2024-03-22T00:54:41;98785.81;;;11.66;56.46
49949;BME280;35840;45.982;8.890;2024-03-22T00:57:08;98782.91;;;11.42;56.80
49949;BME280;35840;45.982;8.890;2024-03-22T00:59:34;98778.16;;;11.50;56.97
49949;BME280;35840;45.982;8.890;2024-03-22T01:02:00;98783.34;;;11.64;56.68
49949;BME280;35840;45.982;8.890;2024-03-22T01:04:26;98782.78;;;11.74;56.57
49949;BME280;35840;45.982;8.890;2024-03-22T01:06:52;98786.22;;;11.74;55.99
49949;BME280;35840;45.982;8.890;2024-03-22T01:09:18;98783.56;;;11.76;56.34
49949;BME280;35840;45.982;8.890;2024-03-22T01:11:45;98784.88;;;11.22;56.25
49949;BME280;35840;45.982;8.890;2024-03-22T01:14:10;98793.13;;;11.43;56.43
49949;BME280;35840;45.982;8.890;2024-03-22T01:16:36;98807.97;;;11.54;56.43
49949;BME280;35840;45.982;8.890;2024-03-22T01:19:02;98799.97;;;11.59;56.31
49949;BME280;35840;45.982;8.890;2024-03-22T01:21:28;98805.28;;;11.41;56.07
49949;BME280;35840;45.982;8.890;2024-03-22T01:23:54;98803.41;;;11.13;57.10
49949;BME280;35840;45.982;8.890;2024-03-22T01:26:19;98801.63;;;11.29;57.00
49949;BME280;35840;45.982;8.890;2024-03-22T01:28:46;98812.25;;;11.39;56.79
49949;BME280;35840;45.982;8.890;2024-03-22T01:31:12;98807.31;;;11.50;56.49
49949;BME280;35840;45.982;8.890;2024-03-22T01:33:38;98807.09;;;11.39;56.33
49949;BME280;35840;45.982;8.890;2024-03-22T01:36:04;98807.50;;;11.47;56.33
49949;BME280;35840;45.982;8.890;2024-03-22T01:38:31;98804.91;;;11.47;56.57
49949;BME280;35840;45.982;8.890;2024-03-22T01:40:57;98810.75;;;11.35;56.50
49949;BME280;35840;45.982;8.890;2024-03-22T01:43:23;98814.75;;;11.25;58.16
49949;BME280;35840;45.982;8.890;2024-03-22T01:45:48;98810.28;;;11.12;57.63
49949;BME280;35840;45.982;8.890;2024-03-22T01:48:15;98813.53;;;11.16;57.78
49949;BME280;35840;45.982;8.890;2024-03-22T01:50:41;98801.31;;;11.19;58.79
49949;BME280;35840;45.982;8.890;2024-03-22T01:53:08;98805.91;;;10.82;59.36
49949;BME280;35840;45.982;8.890;2024-03-22T01:55:35;98807.56;;;10.99;59.33
49949;BME280;35840;45.982;8.890;2024-03-22T01:58:00;98810.72;;;11.05;59.10
49949;BME280;35840;45.982;8.890;2024-03-22T02:00:26;98814.63;;;10.96;59.10
49949;BME280;35840;45.982;8.890;2024-03-22T02:02:52;98816.50;;;11.08;58.90
49949;BME280;35840;45.982;8.890;2024-03-22T02:05:18;98812.69;;;11.15;59.52
49949;BME280;35840;45.982;8.890;2024-03-22T02:07:46;98802.91;;;10.74;59.80
49949;BME280;35840;45.982;8.890;2024-03-22T02:10:12;98814.41;;;10.84;59.86
49949;BME280;35840;45.982;8.890;2024-03-22T02:12:39;98825.06;;;10.93;59.55
49949;BME280;35840;45.982;8.890;2024-03-22T02:15:05;98822.19;;;10.99;59.54
49949;BME280;35840;45.982;8.890;2024-03-22T02:17:33;98822.50;;;10.93;59.26
49949;BME280;35840;45.982;8.890;2024-03-22T02:19:59;98817.34;;;10.93;59.38
49949;BME280;35840;45.982;8.890;2024-03-22T02:22:26;98820.53;;;10.98;59.00
49949;BME280;35840;45.982;8.890;2024-03-22T02:24:52;98824.94;;;10.96;58.96
49949;BME280;35840;45.982;8.890;2024-03-22T02:27:18;98817.22;;;10.96;58.74
49949;BME280;35840;45.982;8.890;2024-03-22T02:29:43;98825.41;;;11.02;59.03
49949;BME280;35840;45.982;8.890;2024-03-22T02:32:10;98826.78;;;10.60;59.11
49949;BME280;35840;45.982;8.890;2024-03-22T02:34:36;98827.81;;;10.74;59.42
49949;BME280;35840;45.982;8.890;2024-03-22T02:37:02;98835.53;;;10.74;59.53
49949;BME280;35840;45.982;8.890;2024-03-22T02:39:28;98834.97;;;10.84;59.15
49949;BME280;35840;45.982;8.890;2024-03-22T02:41:55;98827.13;;;10.70;58.67
49949;BME280;35840;45.982;8.890;2024-03-22T02:44:20;98841.03;;;10.83;58.49
49949;BME280;35840;45.982;8.890;2024-03-22T02:46:46;98836.41;;;10.23;59.46
49949;BME280;35840;45.982;8.890;2024-03-22T02:49:12;98843.44;;;10.37;59.87
49949;BME280;35840;45.982;8.890;2024-03-22T02:51:38;98840.06;;;10.53;59.43
49949;BME280;35840;45.982;8.890;2024-03-22T02:54:04;98841.41;;;10.60;59.66
49949;BME280;35840;45.982;8.890;2024-03-22T02:56:30;98832.19;;;10.56;59.45
49949;BME280;35840;45.982;8.890;2024-03-22T02:58:56;98838.19;;;10.56;59.56
49949;BME280;35840;45.982;8.890;2024-03-22T03:01:22;98839.91;;;10.56;59.68
49949;BME280;35840;45.982;8.890;2024-03-22T03:03:48;98834.19;;;10.50;60.12
49949;BME280;35840;45.982;8.890;2024-03-22T03:06:13;98843.47;;;10.53;59.87
49949;BME280;35840;45.982;8.890;2024-03-22T03:08:40;98844.06;;;10.58;59.99
49949;BME280;35840;45.982;8.890;2024-03-22T03:11:06;98842.16;;;10.28;60.81
49949;BME280;35840;45.982;8.890;2024-03-22T03:13:32;98842.38;;;10.24;61.26
49949;BME280;35840;45.982;8.890;2024-03-22T03:15:58;98848.44;;;10.23;60.88
49949;BME280;35840;45.982;8.890;2024-03-22T03:18:24;98845.63;;;10.27;61.04
49949;BME280;35840;45.982;8.890;2024-03-22T03:20:50;98852.59;;;10.25;60.85
49949;BME280;35840;45.982;8.890;2024-03-22T03:23:15;98847.19;;;10.30;60.67
49949;BME280;35840;45.982;8.890;2024-03-22T03:25:41;98859.63;;;10.39;60.30
49949;BME280;35840;45.982;8.890;2024-03-22T03:28:07;98849.91;;;10.44;59.76
49949;BME280;35840;45.982;8.890;2024-03-22T03:30:35;98853.41;;;10.43;59.88
49949;BME280;35840;45.982;8.890;2024-03-22T03:33:01;98856.28;;;10.37;59.54
49949;BME280;35840;45.982;8.890;2024-03-22T03:35:27;98861.59;;;10.34;59.67
49949;BME280;35840;45.982;8.890;2024-03-22T03:37:55;98855.59;;;10.33;59.49
49949;BME280;35840;45.982;8.890;2024-03-22T03:40:21;98862.47;;;10.33;59.50
49949;BME280;35840;45.982;8.890;2024-03-22T03:42:53;98859.03;;;10.34;59.82
49949;BME280;35840;45.982;8.890;2024-03-22T03:45:19;98861.28;;;10.23;59.61
49949;BME280;35840;45.982;8.890;2024-03-22T03:47:45;98863.25;;;10.17;59.55
49949;BME280;35840;45.982;8.890;2024-03-22T03:50:11;98845.75;;;10.08;59.50
49949;BME280;35840;45.982;8.890;2024-03-22T03:52:37;98865.81;;;10.17;59.66
49949;BME280;35840;45.982;8.890;2024-03-22T03:55:03;98861.34;;;10.21;59.60
49949;BME280;35840;45.982;8.890;2024-03-22T03:57:29;98862.19;;;10.22;59.55
49949;BME280;35840;45.982;8.890;2024-03-22T03:59:55;98860.00;;;10.14;58.99
49949;BME280;35840;45.982;8.890;2024-03-22T04:02:21;98859.03;;;10.16;59.87
49949;BME280;35840;45.982;8.890;2024-03-22T04:04:47;98853.88;;;10.16;60.47
49949;BME280;35840;45.982;8.890;2024-03-22T04:07:12;98860.84;;;10.14;60.14
49949;BME280;35840;45.982;8.890;2024-03-22T04:09:38;98859.56;;;10.06;60.15
49949;BME280;35840;45.982;8.890;2024-03-22T04:12:04;98864.94;;;10.01;61.42
49949;BME280;35840;45.982;8.890;2024-03-22T04:14:30;98867.50;;;10.01;61.81
49949;BME280;35840;45.982;8.890;2024-03-22T04:16:56;98870.69;;;9.89;61.25
49949;BME280;35840;45.982;8.890;2024-03-22T04:19:22;98875.19;;;9.66;62.19
49949;BME280;35840;45.982;8.890;2024-03-22T04:21:49;98875.59;;;9.76;62.28
49949;BME280;35840;45.982;8.890;2024-03-22T04:24:15;98872.63;;;9.66;62.56
49949;BME280;35840;45.982;8.890;2024-03-22T04:26:41;98869.09;;;9.69;62.31
49949;BME280;35840;45.982;8.890;2024-03-22T04:29:06;98877.38;;;9.74;62.11
49949;BME280;35840;45.982;8.890;2024-03-22T04:31:32;98874.78;;;9.39;61.93
49949;BME280;35840;45.982;8.890;2024-03-22T04:33:58;98881.03;;;9.33;62.05
49949;BME280;35840;45.982;8.890;2024-03-22T04:36:24;98887.63;;;9.20;62.39
49949;BME280;35840;45.982;8.890;2024-03-22T04:38:49;98882.19;;;9.45;61.62
49949;BME280;35840;45.982;8.890;2024-03-22T04:41:15;98888.69;;;9.52;61.44
49949;BME280;35840;45.982;8.890;2024-03-22T04:43:42;98887.63;;;9.56;61.13
49949;BME280;35840;45.982;8.890;2024-03-22T04:46:08;98895.25;;;9.58;60.48
49949;BME280;35840;45.982;8.890;2024-03-22T04:48:34;98885.22;;;9.53;60.96
49949;BME280;35840;45.982;8.890;2024-03-22T04:50:59;98898.38;;;9.64;60.76
49949;BME280;35840;45.982;8.890;2024-03-22T04:53:25;98902.88;;;9.59;61.07
49949;BME280;35840;45.982;8.890;2024-03-22T04:55:52;98906.38;;;9.58;61.03
49949;BME280;35840;45.982;8.890;2024-03-22T04:58:20;98911.19;;;9.28;62.36
49949;BME280;35840;45.982;8.890;2024-03-22T05:00:47;98896.63;;;9.28;62.03
49949;BME280;35840;45.982;8.890;2024-03-22T05:03:14;98905.13;;;9.48;61.80
49949;BME280;35840;45.982;8.890;2024-03-22T05:05:40;98914.75;;;9.62;61.53
49949;BME280;35840;45.982;8.890;2024-03-22T05:08:07;98918.91;;;9.64;61.96
49949;BME280;35840;45.982;8.890;2024-03-22T05:10:33;98925.31;;;9.56;62.34
49949;BME280;35840;45.982;8.890;2024-03-22T05:13:00;98924.72;;;9.68;62.60
49949;BME280;35840;45.982;8.890;2024-03-22T05:15:26;98922.22;;;9.67;62.24
49949;BME280;35840;45.982;8.890;2024-03-22T05:17:53;98922.31;;;9.65;62.11
49949;BME280;35840;45.982;8.890;2024-03-22T05:20:19;98926.38;;;9.69;61.70
49949;BME280;35840;45.982;8.890;2024-03-22T05:22:46;98926.53;;;9.66;61.80
49949;BME280;35840;45.982;8.890;2024-03-22T05:25:12;98924.72;;;9.68;62.03
49949;BME280;35840;45.982;8.890;2024-03-22T05:27:41;98934.81;;;9.54;62.68
49949;BME280;35840;45.982;8.890;2024-03-22T05:30:11;98934.56;;;9.41;63.70
49949;BME280;35840;45.982;8.890;2024-03-22T05:32:37;98940.53;;;9.41;63.74
49949;BME280;35840;45.982;8.890;2024-03-22T05:35:04;98939.63;;;9.42;64.62
49949;BME280;35840;45.982;8.890;2024-03-22T05:37:30;98934.41;;;9.44;64.43
49949;BME280;35840;45.982;8.890;2024-03-22T05:39:56;98939.34;;;9.48;64.13
49949;BME280;35840;45.982;8.890;2024-03-22T05:42:22;98946.75;;;9.55;65.11
49949;BME280;35840;45.982;8.890;2024-03-22T05:44:48;98952.25;;;9.47;65.35
49949;BME280;35840;45.982;8.890;2024-03-22T05:47:14;98961.53;;;9.50;65.39
49949;BME280;35840;45.982;8.890;2024-03-22T05:49:39;98957.09;;;9.53;65.27
49949;BME280;35840;45.982;8.890;2024-03-22T05:52:05;98959.59;;;9.55;65.50
49949;BME280;35840;45.982;8.890;2024-03-22T05:54:32;98958.13;;;9.49;66.16
49949;BME280;35840;45.982;8.890;2024-03-22T05:56:59;98962.97;;;9.55;65.95
49949;BME280;35840;45.982;8.890;2024-03-22T05:59:26;98963.59;;;9.60;65.79
49949;BME280;35840;45.982;8.890;2024-03-22T06:01:53;98954.94;;;9.63;65.94
49949;BME280;35840;45.982;8.890;2024-03-22T06:04:18;98957.50;;;9.63;66.15
49949;BME280;35840;45.982;8.890;2024-03-22T06:06:44;98961.25;;;9.56;66.41
49949;BME280;35840;45.982;8.890;2024-03-22T06:09:10;98959.22;;;9.62;66.45
49949;BME280;35840;45.982;8.890;2024-03-22T06:11:37;98960.00;;;9.64;66.43
49949;BME280;35840;45.982;8.890;2024-03-22T06:14:03;98960.84;;;9.46;67.65
49949;BME280;35840;45.982;8.890;2024-03-22T06:16:29;98966.25;;;9.59;67.13
49949;BME280;35840;45.982;8.890;2024-03-22T06:18:55;98967.53;;;9.68;66.57
49949;BME280;35840;45.982;8.890;2024-03-22T06:21:21;98969.88;;;9.72;67.08
49949;BME280;35840;45.982;8.890;2024-03-22T06:23:51;98963.03;;;9.73;66.99
49949;BME280;35840;45.982;8.890;2024-03-22T06:26:18;98968.69;;;9.79;66.83
49949;BME280;35840;45.982;8.890;2024-03-22T06:28:44;98961.69;;;9.83;66.10
49949;BME280;35840;45.982;8.890;2024-03-22T06:31:09;98966.53;;;9.89;66.56
49949;BME280;35840;45.982;8.890;2024-03-22T06:33:35;98967.06;;;9.96;66.69
49949;BME280;35840;45.982;8.890;2024-03-22T06:36:01;98964.16;;;10.04;66.49
49949;BME280;35840;45.982;8.890;2024-03-22T06:38:29;98962.84;;;10.12;66.13
49949;BME280;35840;45.982;8.890;2024-03-22T06:40:54;98959.00;;;10.21;67.23
49949;BME280;35840;45.982;8.890;2024-03-22T06:43:20;98956.19;;;10.26;68.72
49949;BME280;35840;45.982;8.890;2024-03-22T06:45:46;98952.66;;;10.28;69.22
49949;BME280;35840;45.982;8.890;2024-03-22T06:48:12;98952.97;;;10.40;68.96
49949;BME280;35840;45.982;8.890;2024-03-22T06:50:41;98961.38;;;10.43;69.30
49949;BME280;35840;45.982;8.890;2024-03-22T06:53:07;98955.16;;;10.47;68.95
49949;BME280;35840;45.982;8.890;2024-03-22T06:55:33;98952.94;;;10.57;68.63
49949;BME280;35840;45.982;8.890;2024-03-22T06:57:58;98945.75;;;10.64;68.40
49949;BME280;35840;45.982;8.890;2024-03-22T07:00:24;98950.44;;;10.73;67.68
49949;BME280;35840;45.982;8.890;2024-03-22T07:02:50;98951.78;;;10.80;68.55
49949;BME280;35840;45.982;8.890;2024-03-22T07:05:16;98946.31;;;10.87;68.35
49949;BME280;35840;45.982;8.890;2024-03-22T07:07:42;98946.75;;;10.95;67.63
49949;BME280;35840;45.982;8.890;2024-03-22T07:10:08;98937.88;;;11.00;67.17
49949;BME280;35840;45.982;8.890;2024-03-22T07:12:34;98941.09;;;11.04;68.22
49949;BME280;35840;45.982;8.890;2024-03-22T07:15:00;98932.38;;;11.07;67.62
49949;BME280;35840;45.982;8.890;2024-03-22T07:17:27;98935.69;;;10.93;66.93
49949;BME280;35840;45.982;8.890;2024-03-22T07:19:53;98921.03;;;10.95;65.68
49949;BME280;35840;45.982;8.890;2024-03-22T07:22:20;98933.38;;;11.04;66.98
49949;BME280;35840;45.982;8.890;2024-03-22T07:24:46;98930.72;;;10.90;65.52
49949;BME280;35840;45.982;8.890;2024-03-22T07:27:17;98927.56;;;10.84;66.29
49949;BME280;35840;45.982;8.890;2024-03-22T07:29:44;98924.91;;;10.86;66.69
49949;BME280;35840;45.982;8.890;2024-03-22T07:32:10;98925.56;;;11.06;66.18
49949;BME280;35840;45.982;8.890;2024-03-22T07:34:35;98930.84;;;11.20;65.52
49949;BME280;35840;45.982;8.890;2024-03-22T07:37:01;98933.88;;;11.27;65.90
49949;BME280;35840;45.982;8.890;2024-03-22T07:39:27;98927.94;;;11.26;65.96
49949;BME280;35840;45.982;8.890;2024-03-22T07:41:53;98927.94;;;11.26;65.87
49949;BME280;35840;45.982;8.890;2024-03-22T07:44:19;98930.75;;;11.22;65.59
49949;BME280;35840;45.982;8.890;2024-03-22T07:46:50;98934.22;;;11.20;65.67
49949;BME280;35840;45.982;8.890;2024-03-22T07:49:16;98940.19;;;11.21;65.86
49949;BME280;35840;45.982;8.890;2024-03-22T07:51:41;98942.03;;;11.19;65.30
49949;BME280;35840;45.982;8.890;2024-03-22T07:54:07;98938.69;;;11.17;65.41
49949;BME280;35840;45.982;8.890;2024-03-22T07:56:33;98946.19;;;11.22;65.23
49949;BME280;35840;45.982;8.890;2024-03-22T07:58:59;98937.50;;;11.24;65.17
49949;BME280;35840;45.982;8.890;2024-03-22T08:01:25;98938.22;;;11.26;64.67
49949;BME280;35840;45.982;8.890;2024-03-22T08:03:51;98935.97;;;11.36;63.96
49949;BME280;35840;45.982;8.890;2024-03-22T08:06:17;98943.44;;;11.41;64.43
49949;BME280;35840;45.982;8.890;2024-03-22T08:08:43;98929.50;;;11.45;64.32
49949;BME280;35840;45.982;8.890;2024-03-22T08:11:09;98931.72;;;11.51;64.64
49949;BME280;35840;45.982;8.890;2024-03-22T08:13:36;98931.41;;;11.57;64.14
49949;BME280;35840;45.982;8.890;2024-03-22T08:16:02;98924.31;;;11.61;64.95
49949;BME280;35840;45.982;8.890;2024-03-22T08:18:27;98924.63;;;11.70;64.50
49949;BME280;35840;45.982;8.890;2024-03-22T08:20:53;98924.22;;;11.78;63.94
49949;BME280;35840;45.982;8.890;2024-03-22T08:23:20;98915.13;;;11.87;64.58
49949;BME280;35840;45.982;8.890;2024-03-22T08:25:48;98915.97;;;11.87;64.46
49949;BME280;35840;45.982;8.890;2024-03-22T08:28:14;98919.28;;;11.89;63.93
49949;BME280;35840;45.982;8.890;2024-03-22T08:30:41;98913.13;;;11.92;62.98
49949;BME280;35840;45.982;8.890;2024-03-22T08:33:08;98908.66;;;11.96;62.44
49949;BME280;35840;45.982;8.890;2024-03-22T08:35:34;98906.47;;;12.04;62.81
49949;BME280;35840;45.982;8.890;2024-03-22T08:38:00;98906.88;;;12.12;63.23
49949;BME280;35840;45.982;8.890;2024-03-22T08:40:26;98904.84;;;12.17;62.53
49949;BME280;35840;45.982;8.890;2024-03-22T08:42:52;98912.22;;;12.23;63.71
49949;BME280;35840;45.982;8.890;2024-03-22T08:45:18;98920.31;;;12.32;62.86
49949;BME280;35840;45.982;8.890;2024-03-22T08:47:44;98910.56;;;12.37;63.40
49949;BME280;35840;45.982;8.890;2024-03-22T08:50:13;98908.56;;;12.42;64.03
49949;BME280;35840;45.982;8.890;2024-03-22T08:52:38;98905.53;;;12.50;67.88
49949;BME280;35840;45.982;8.890;2024-03-22T08:55:04;98907.47;;;12.61;67.64
49949;BME280;35840;45.982;8.890;2024-03-22T08:57:33;98900.81;;;12.71;67.33
49949;BME280;35840;45.982;8.890;2024-03-22T08:59:59;98892.34;;;12.83;68.43
49949;BME280;35840;45.982;8.890;2024-03-22T09:02:25;98895.97;;;13.08;67.88
49949;BME280;35840;45.982;8.890;2024-03-22T09:04:51;98891.38;;;13.13;66.63
49949;BME280;35840;45.982;8.890;2024-03-22T09:07:18;98885.28;;;13.14;66.14
49949;BME280;35840;45.982;8.890;2024-03-22T09:09:44;98888.78;;;13.13;65.96
49949;BME280;35840;45.982;8.890;2024-03-22T09:12:10;98879.47;;;13.11;65.99
49949;BME280;35840;45.982;8.890;2024-03-22T09:14:36;98885.66;;;13.08;65.99
49949;BME280;35840;45.982;8.890;2024-03-22T09:17:02;98883.16;;;13.06;65.43
49949;BME280;35840;45.982;8.890;2024-03-22T09:19:28;98881.16;;;13.12;65.80
49949;BME280;35840;45.982;8.890;2024-03-22T09:21:54;98874.28;;;13.25;67.02
49949;BME280;35840;45.982;8.890;2024-03-22T09:24:19;98871.53;;;13.55;68.33
49949;BME280;35840;45.982;8.890;2024-03-22T09:26:45;98869.59;;;13.72;66.86
49949;BME280;35840;45.982;8.890;2024-03-22T09:29:13;98865.44;;;13.69;65.69
49949;BME280;35840;45.982;8.890;2024-03-22T09:31:39;98855.03;;;13.71;65.68
49949;BME280;35840;45.982;8.890;2024-03-22T09:34:04;98856.81;;;13.83;66.61
49949;BME280;35840;45.982;8.890;2024-03-22T09:36:31;98865.69;;;13.79;64.95
49949;BME280;35840;45.982;8.890;2024-03-22T09:39:01;98865.88;;;13.76;64.17
49949;BME280;35840;45.982;8.890;2024-03-22T09:41:27;98857.22;;;13.90;66.77
49949;BME280;35840;45.982;8.890;2024-03-22T09:43:57;98855.56;;;13.89;65.52
49949;BME280;35840;45.982;8.890;2024-03-22T09:46:24;98851.34;;;14.01;68.49
49949;BME280;35840;45.982;8.890;2024-03-22T09:48:52;98841.94;;;14.12;66.56
49949;BME280;35840;45.982;8.890;2024-03-22T09:51:19;98844.63;;;14.37;68.31
49949;BME280;35840;45.982;8.890;2024-03-22T09:53:48;98844.28;;;14.54;66.36
49949;BME280;35840;45.982;8.890;2024-03-22T09:56:15;98840.16;;;14.52;66.21
49949;BME280;35840;45.982;8.890;2024-03-22T09:58:43;98843.25;;;14.44;63.77
49949;BME280;35840;45.982;8.890;2024-03-22T10:01:11;98834.47;;;14.46;63.10
49949;BME280;35840;45.982;8.890;2024-03-22T10:03:38;98832.78;;;14.58;64.97
49949;BME280;35840;45.982;8.890;2024-03-22T10:06:06;98828.47;;;14.72;64.50
49949;BME280;35840;45.982;8.890;2024-03-22T10:08:32;98830.50;;;14.79;62.97
49949;BME280;35840;45.982;8.890;2024-03-22T10:11:01;98821.41;;;14.98;65.46
49949;BME280;35840;45.982;8.890;2024-03-22T10:13:28;98822.22;;;15.11;62.09
49949;BME280;35840;45.982;8.890;2024-03-22T10:15:56;98826.53;;;15.11;61.89
49949;BME280;35840;45.982;8.890;2024-03-22T10:18:22;98823.38;;;15.07;58.11
49949;BME280;35840;45.982;8.890;2024-03-22T10:20:59;98828.31;;;15.10;62.80
49949;BME280;35840;45.982;8.890;2024-03-22T10:23:25;98814.22;;;15.14;63.54
49949;BME280;35840;45.982;8.890;2024-03-22T10:25:51;98816.88;;;15.26;59.40
49949;BME280;35840;45.982;8.890;2024-03-22T10:28:17;98810.25;;;15.22;61.05
49949;BME280;35840;45.982;8.890;2024-03-22T10:30:44;98805.47;;;15.28;60.02
49949;BME280;35840;45.982;8.890;2024-03-22T10:33:10;98799.34;;;15.41;61.07
49949;BME280;35840;45.982;8.890;2024-03-22T10:35:37;98805.31;;;15.54;59.08
49949;BME280;35840;45.982;8.890;2024-03-22T10:38:04;98773.28;;;15.55;58.85
49949;BME280;35840;45.982;8.890;2024-03-22T10:40:30;98798.38;;;15.66;54.28
49949;BME280;35840;45.982;8.890;2024-03-22T10:42:57;98798.75;;;15.73;53.70
49949;BME280;35840;45.982;8.890;2024-03-22T10:45:23;98790.22;;;15.83;52.60
49949;BME280;35840;45.982;8.890;2024-03-22T10:47:53;98788.06;;;15.89;49.44
49949;BME280;35840;45.982;8.890;2024-03-22T10:50:22;98787.72;;;16.05;49.61
49949;BME280;35840;45.982;8.890;2024-03-22T10:52:56;98776.78;;;16.24;48.29
49949;BME280;35840;45.982;8.890;2024-03-22T10:55:27;98767.81;;;16.39;51.56
49949;BME280;35840;45.982;8.890;2024-03-22T10:57:57;98762.84;;;16.59;53.19
49949;BME280;35840;45.982;8.890;2024-03-22T11:00:30;98759.16;;;16.61;48.77
49949;BME280;35840;45.982;8.890;2024-03-22T11:02:56;98756.44;;;16.74;49.59
49949;BME280;35840;45.982;8.890;2024-03-22T11:05:22;98751.91;;;16.87;47.19
49949;BME280;35840;45.982;8.890;2024-03-22T11:08:04;98740.44;;;17.01;45.94
49949;BME280;35840;45.982;8.890;2024-03-22T11:10:34;98748.72;;;17.16;45.90
49949;BME280;35840;45.982;8.890;2024-03-22T11:13:07;98725.72;;;17.12;45.25
49949;BME280;35840;45.982;8.890;2024-03-22T11:15:34;98733.84;;;17.18;44.32
49949;BME280;35840;45.982;8.890;2024-03-22T11:18:00;98729.94;;;17.24;44.89
49949;BME280;35840;45.982;8.890;2024-03-22T11:20:27;98728.03;;;17.26;42.01
49949;BME280;35840;45.982;8.890;2024-03-22T11:22:54;98725.16;;;17.29;44.26
49949;BME280;35840;45.982;8.890;2024-03-22T11:25:20;98720.94;;;17.28;45.06
49949;BME280;35840;45.982;8.890;2024-03-22T11:27:46;98724.69;;;17.35;46.57
49949;BME280;35840;45.982;8.890;2024-03-22T11:30:12;98718.41;;;17.38;43.91
49949;BME280;35840;45.982;8.890;2024-03-22T11:32:40;98703.63;;;17.38;44.76
49949;BME280;35840;45.982;8.890;2024-03-22T11:35:11;98706.16;;;17.50;44.53
49949;BME280;35840;45.982;8.890;2024-03-22T11:37:40;98698.63;;;17.47;44.79
49949;BME280;35840;45.982;8.890;2024-03-22T11:40:10;98693.69;;;17.53;44.77
49949;BME280;35840;45.982;8.890;2024-03-22T11:42:39;98687.16;;;17.59;45.35
49949;BME280;35840;45.982;8.890;2024-03-22T11:45:08;98685.00;;;17.64;44.77
49949;BME280;35840;45.982;8.890;2024-03-22T11:47:35;98689.59;;;17.72;45.19
49949;BME280;35840;45.982;8.890;2024-03-22T11:50:01;98685.63;;;17.78;45.27
49949;BME280;35840;45.982;8.890;2024-03-22T11:52:28;98683.56;;;17.81;44.23
49949;BME280;35840;45.982;8.890;2024-03-22T11:54:55;98676.34;;;17.85;45.64
49949;BME280;35840;45.982;8.890;2024-03-22T11:57:21;98661.06;;;17.92;45.60
49949;BME280;35840;45.982;8.890;2024-03-22T11:59:47;98667.53;;;18.07;45.34
49949;BME280;35840;45.982;8.890;2024-03-22T12:02:13;98658.47;;;18.01;43.58
49949;BME280;35840;45.982;8.890;2024-03-22T12:04:45;98657.94;;;17.98;47.02
49949;BME280;35840;45.982;8.890;2024-03-22T12:07:13;98650.69;;;18.01;44.87
49949;BME280;35840;45.982;8.890;2024-03-22T12:09:40;98647.81;;;18.04;47.50
49949;BME280;35840;45.982;8.890;2024-03-22T12:12:08;98639.19;;;18.04;46.60
49949;BME280;35840;45.982;8.890;2024-03-22T12:14:35;98638.41;;;18.23;45.21
49949;BME280;35840;45.982;8.890;2024-03-22T12:17:05;98643.75;;;18.31;45.32
49949;BME280;35840;45.982;8.890;2024-03-22T12:19:31;98627.75;;;18.36;44.72
49949;BME280;35840;45.982;8.890;2024-03-22T12:21:57;98632.94;;;18.36;45.16
49949;BME280;35840;45.982;8.890;2024-03-22T12:24:23;98622.53;;;18.46;45.63
49949;BME280;35840;45.982;8.890;2024-03-22T12:26:49;98619.09;;;18.45;44.30
49949;BME280;35840;45.982;8.890;2024-03-22T12:29:16;98616.09;;;18.40;44.63
49949;BME280;35840;45.982;8.890;2024-03-22T12:31:43;98612.66;;;18.39;44.96
49949;BME280;35840;45.982;8.890;2024-03-22T12:34:09;98609.38;;;18.57;45.27
49949;BME280;35840;45.982;8.890;2024-03-22T12:36:35;98603.47;;;18.74;44.11
49949;BME280;35840;45.982;8.890;2024-03-22T12:39:01;98595.66;;;18.74;45.91
49949;BME280;35840;45.982;8.890;2024-03-22T12:41:30;98588.00;;;18.63;45.40
49949;BME280;35840;45.982;8.890;2024-03-22T12:43:56;98587.44;;;18.59;46.36
49949;BME280;35840;45.982;8.890;2024-03-22T12:46:22;98587.84;;;18.55;44.60
49949;BME280;35840;45.982;8.890;2024-03-22T12:48:48;98580.47;;;18.50;45.65
49949;BME280;35840;45.982;8.890;2024-03-22T12:51:14;98585.69;;;18.60;46.20
49949;BME280;35840;45.982;8.890;2024-03-22T12:53:40;98580.03;;;18.65;45.80
49949;BME280;35840;45.982;8.890;2024-03-22T12:56:06;98577.28;;;18.66;45.74
49949;BME280;35840;45.982;8.890;2024-03-22T12:58:32;98571.13;;;18.67;46.47